sensor_id;sensor_type;location;lat;lon;timestamp;P1;durP1;ratioP1;P2;durP2;ratioP2
59998;SDS011;45859;51.378;6.736;2024-02-23T00:00:14;0.10;;;0.10;;
59998;SDS011;45859;51.378;6.736;2024-02-23T00:02:42;0.37;;;0.37;;
59998;SDS011;45859;51.378;6.736;2024-02-23T00:05:08;6.50;;;0.93;;
59998;SDS011;45859;51.378;6.736;2024-02-23T00:07:34;1.30;;;0.67;;
59998;SDS011;45859;51.378;6.736;2024-02-23T00:10:00;0.60;;;0.60;;
59998;SDS011;45859;51.378;6.736;2024-02-23T00:12:27;1.50;;;0.70;;
59998;SDS011;45859;51.378;6.736;2024-02-23T00:14:53;0.80;;;0.50;;
59998;SDS011;45859;51.378;6.736;2024-02-23T00:17:19;0.50;;;0.33;;
59998;SDS011;45859;51.378;6.736;2024-02-23T00:19:45;2.10;;;1.10;;
59998;SDS011;45859;51.378;6.736;2024-02-23T00:22:12;1.97;;;1.33;;
59998;SDS011;45859;51.378;6.736;2024-02-23T00:24:38;6.20;;;2.20;;
59998;SDS011;45859;51.378;6.736;2024-02-23T00:27:05;4.83;;;1.90;;
59998;SDS011;45859;51.378;6.736;2024-02-23T00:29:31;2.27;;;1.77;;
59998;SDS011;45859;51.378;6.736;2024-02-23T00:31:57;7.13;;;3.57;;
59998;SDS011;45859;51.378;6.736;2024-02-23T00:34:23;6.53;;;3.63;;
59998;SDS011;45859;51.378;6.736;2024-02-23T00:36:50;7.93;;;3.87;;
59998;SDS011;45859;51.378;6.736;2024-02-23T00:39:16;16.33;;;5.23;;
59998;SDS011;45859;51.378;6.736;2024-02-23T00:41:42;21.90;;;9.03;;
59998;SDS011;45859;51.378;6.736;2024-02-23T00:44:08;16.63;;;6.93;;
59998;SDS011;45859;51.378;6.736;2024-02-23T00:46:34;11.70;;;4.93;;
59998;SDS011;45859;51.378;6.736;2024-02-23T00:49:00;5.53;;;3.03;;
59998;SDS011;45859;51.378;6.736;2024-02-23T00:51:26;0.97;;;0.50;;
59998;SDS011;45859;51.378;6.736;2024-02-23T00:53:52;8.13;;;2.30;;
59998;SDS011;45859;51.378;6.736;2024-02-23T00:56:18;8.03;;;3.70;;
59998;SDS011;45859;51.378;6.736;2024-02-23T00:58:44;6.13;;;1.20;;
59998;SDS011;45859;51.378;6.736;2024-02-23T01:01:10;18.53;;;4.33;;
59998;SDS011;45859;51.378;6.736;2024-02-23T01:03:36;4.37;;;1.87;;
59998;SDS011;45859;51.378;6.736;2024-02-23T01:06:02;4.27;;;2.33;;
59998;SDS011;45859;51.378;6.736;2024-02-23T01:08:28;3.13;;;1.57;;
59998;SDS011;45859;51.378;6.736;2024-02-23T01:10:54;6.23;;;2.83;;
59998;SDS011;45859;51.378;6.736;2024-02-23T01:13:20;3.00;;;1.47;;
59998;SDS011;45859;51.378;6.736;2024-02-23T01:15:46;1.53;;;0.80;;
59998;SDS011;45859;51.378;6.736;2024-02-23T01:18:12;2.73;;;1.23;;
59998;SDS011;45859;51.378;6.736;2024-02-23T01:20:38;1.50;;;0.80;;
59998;SDS011;45859;51.378;6.736;2024-02-23T01:23:04;1.13;;;0.83;;
59998;SDS011;45859;51.378;6.736;2024-02-23T01:25:30;0.73;;;0.50;;
59998;SDS011;45859;51.378;6.736;2024-02-23T01:27:56;3.57;;;0.83;;
59998;SDS011;45859;51.378;6.736;2024-02-23T01:30:22;1.07;;;0.60;;
59998;SDS011;45859;51.378;6.736;2024-02-23T01:32:48;1.73;;;0.50;;
59998;SDS011;45859;51.378;6.736;2024-02-23T01:35:15;1.17;;;0.70;;
59998;SDS011;45859;51.378;6.736;2024-02-23T01:37:41;1.13;;;0.60;;
59998;SDS011;45859;51.378;6.736;2024-02-23T01:40:07;0.43;;;0.33;;
59998;SDS011;45859;51.378;6.736;2024-02-23T01:42:33;1.13;;;0.50;;
59998;SDS011;45859;51.378;6.736;2024-02-23T01:44:59;0.80;;;0.80;;
59998;SDS011;45859;51.378;6.736;2024-02-23T01:47:26;1.87;;;0.87;;
59998;SDS011;45859;51.378;6.736;2024-02-23T01:49:54;2.47;;;0.67;;
59998;SDS011;45859;51.378;6.736;2024-02-23T01:52:20;1.90;;;0.53;;
59998;SDS011;45859;51.378;6.736;2024-02-23T01:54:46;1.23;;;0.20;;
59998;SDS011;45859;51.378;6.736;2024-02-23T01:57:12;0.90;;;0.30;;
59998;SDS011;45859;51.378;6.736;2024-02-23T01:59:39;4.70;;;0.70;;
59998;SDS011;45859;51.378;6.736;2024-02-23T02:02:06;0.40;;;0.33;;
59998;SDS011;45859;51.378;6.736;2024-02-23T02:04:31;0.60;;;0.50;;
59998;SDS011;45859;51.378;6.736;2024-02-23T02:06:58;0.30;;;0.30;;
59998;SDS011;45859;51.378;6.736;2024-02-23T02:09:25;0.37;;;0.37;;
59998;SDS011;45859;51.378;6.736;2024-02-23T02:11:51;2.20;;;0.63;;
59998;SDS011;45859;51.378;6.736;2024-02-23T02:14:17;0.50;;;0.20;;
59998;SDS011;45859;51.378;6.736;2024-02-23T02:16:44;1.80;;;0.50;;
59998;SDS011;45859;51.378;6.736;2024-02-23T02:19:10;4.47;;;0.53;;
59998;SDS011;45859;51.378;6.736;2024-02-23T02:21:36;2.13;;;0.40;;
59998;SDS011;45859;51.378;6.736;2024-02-23T02:24:03;0.53;;;0.40;;
59998;SDS011;45859;51.378;6.736;2024-02-23T02:26:29;2.13;;;0.40;;
59998;SDS011;45859;51.378;6.736;2024-02-23T02:28:55;0.67;;;0.30;;
59998;SDS011;45859;51.378;6.736;2024-02-23T02:31:21;16.57;;;1.03;;
59998;SDS011;45859;51.378;6.736;2024-02-23T02:33:47;0.87;;;0.27;;
59998;SDS011;45859;51.378;6.736;2024-02-23T02:36:13;0.30;;;0.30;;
59998;SDS011;45859;51.378;6.736;2024-02-23T02:38:39;0.70;;;0.47;;
59998;SDS011;45859;51.378;6.736;2024-02-23T02:41:05;1.23;;;0.60;;
59998;SDS011;45859;51.378;6.736;2024-02-23T02:43:32;2.33;;;0.20;;
59998;SDS011;45859;51.378;6.736;2024-02-23T02:45:58;0.73;;;0.50;;
59998;SDS011;45859;51.378;6.736;2024-02-23T02:48:24;0.70;;;0.40;;
59998;SDS011;45859;51.378;6.736;2024-02-23T02:50:51;0.40;;;0.30;;
59998;SDS011;45859;51.378;6.736;2024-02-23T02:53:17;6.60;;;0.27;;
59998;SDS011;45859;51.378;6.736;2024-02-23T02:55:43;2.23;;;0.80;;
59998;SDS011;45859;51.378;6.736;2024-02-23T02:58:12;3.00;;;0.20;;
59998;SDS011;45859;51.378;6.736;2024-02-23T03:00:38;0.83;;;0.40;;
59998;SDS011;45859;51.378;6.736;2024-02-23T03:03:04;2.40;;;0.20;;
59998;SDS011;45859;51.378;6.736;2024-02-23T03:05:30;1.83;;;0.50;;
59998;SDS011;45859;51.378;6.736;2024-02-23T03:07:56;8.10;;;2.00;;
59998;SDS011;45859;51.378;6.736;2024-02-23T03:10:22;0.73;;;0.30;;
59998;SDS011;45859;51.378;6.736;2024-02-23T03:12:48;2.93;;;0.20;;
59998;SDS011;45859;51.378;6.736;2024-02-23T03:15:14;0.40;;;0.10;;
59998;SDS011;45859;51.378;6.736;2024-02-23T03:17:41;1.70;;;0.20;;
59998;SDS011;45859;51.378;6.736;2024-02-23T03:20:07;1.20;;;0.23;;
59998;SDS011;45859;51.378;6.736;2024-02-23T03:22:34;1.37;;;0.33;;
59998;SDS011;45859;51.378;6.736;2024-02-23T03:25:00;0.57;;;0.40;;
59998;SDS011;45859;51.378;6.736;2024-02-23T03:27:32;0.40;;;0.03;;
59998;SDS011;45859;51.378;6.736;2024-02-23T03:29:58;0.83;;;0.23;;
59998;SDS011;45859;51.378;6.736;2024-02-23T03:32:24;1.83;;;0.47;;
59998;SDS011;45859;51.378;6.736;2024-02-23T03:34:50;6.00;;;0.50;;
59998;SDS011;45859;51.378;6.736;2024-02-23T03:37:16;1.63;;;0.20;;
59998;SDS011;45859;51.378;6.736;2024-02-23T03:39:43;1.13;;;0.20;;
59998;SDS011;45859;51.378;6.736;2024-02-23T03:42:08;1.40;;;0.50;;
59998;SDS011;45859;51.378;6.736;2024-02-23T03:44:34;0.87;;;0.40;;
59998;SDS011;45859;51.378;6.736;2024-02-23T03:47:00;0.87;;;0.43;;
59998;SDS011;45859;51.378;6.736;2024-02-23T03:49:26;3.00;;;0.33;;
59998;SDS011;45859;51.378;6.736;2024-02-23T03:51:52;0.27;;;0.10;;
59998;SDS011;45859;51.378;6.736;2024-02-23T03:54:18;0.10;;;0.10;;
59998;SDS011;45859;51.378;6.736;2024-02-23T03:56:44;0.80;;;0.30;;
59998;SDS011;45859;51.378;6.736;2024-02-23T03:59:11;0.30;;;0.10;;
59998;SDS011;45859;51.378;6.736;2024-02-23T04:01:37;0.47;;;0.40;;
59998;SDS011;45859;51.378;6.736;2024-02-23T04:04:04;2.87;;;0.20;;
59998;SDS011;45859;51.378;6.736;2024-02-23T04:06:30;6.00;;;0.30;;
59998;SDS011;45859;51.378;6.736;2024-02-23T04:08:56;5.23;;;0.40;;
59998;SDS011;45859;51.378;6.736;2024-02-23T04:11:22;1.17;;;0.33;;
59998;SDS011;45859;51.378;6.736;2024-02-23T04:13:48;0.67;;;0.10;;
59998;SDS011;45859;51.378;6.736;2024-02-23T04:16:14;2.20;;;0.10;;
59998;SDS011;45859;51.378;6.736;2024-02-23T04:18:40;0.83;;;0.20;;
59998;SDS011;45859;51.378;6.736;2024-02-23T04:21:06;0.83;;;0.60;;
59998;SDS011;45859;51.378;6.736;2024-02-23T04:23:32;5.30;;;0.30;;
59998;SDS011;45859;51.378;6.736;2024-02-23T04:25:58;0.20;;;0.20;;
59998;SDS011;45859;51.378;6.736;2024-02-23T04:28:24;2.33;;;0.20;;
59998;SDS011;45859;51.378;6.736;2024-02-23T04:30:51;0.10;;;0.10;;
59998;SDS011;45859;51.378;6.736;2024-02-23T04:33:17;1.63;;;0.40;;
59998;SDS011;45859;51.378;6.736;2024-02-23T04:35:43;2.23;;;0.30;;
59998;SDS011;45859;51.378;6.736;2024-02-23T04:38:09;1.07;;;0.13;;
59998;SDS011;45859;51.378;6.736;2024-02-23T04:40:35;1.27;;;0.20;;
59998;SDS011;45859;51.378;6.736;2024-02-23T04:43:01;0.43;;;0.17;;
59998;SDS011;45859;51.378;6.736;2024-02-23T04:45:27;0.40;;;0.23;;
59998;SDS011;45859;51.378;6.736;2024-02-23T04:47:54;2.60;;;0.50;;
59998;SDS011;45859;51.378;6.736;2024-02-23T04:50:20;0.80;;;0.23;;
59998;SDS011;45859;51.378;6.736;2024-02-23T04:52:46;0.50;;;0.10;;
59998;SDS011;45859;51.378;6.736;2024-02-23T04:55:12;1.27;;;0.10;;
59998;SDS011;45859;51.378;6.736;2024-02-23T04:57:38;1.60;;;0.43;;
59998;SDS011;45859;51.378;6.736;2024-02-23T05:00:05;1.60;;;0.30;;
59998;SDS011;45859;51.378;6.736;2024-02-23T05:02:32;0.27;;;0.27;;
59998;SDS011;45859;51.378;6.736;2024-02-23T05:05:01;1.50;;;0.20;;
59998;SDS011;45859;51.378;6.736;2024-02-23T05:07:29;0.20;;;0.10;;
59998;SDS011;45859;51.378;6.736;2024-02-23T05:09:55;2.33;;;0.57;;
59998;SDS011;45859;51.378;6.736;2024-02-23T05:12:21;0.20;;;0.10;;
59998;SDS011;45859;51.378;6.736;2024-02-23T05:14:47;0.20;;;0.13;;
59998;SDS011;45859;51.378;6.736;2024-02-23T05:17:13;0.10;;;0.00;;
59998;SDS011;45859;51.378;6.736;2024-02-23T05:19:39;0.63;;;0.10;;
59998;SDS011;45859;51.378;6.736;2024-02-23T05:22:05;0.00;;;0.00;;
59998;SDS011;45859;51.378;6.736;2024-02-23T05:24:31;10.67;;;0.63;;
59998;SDS011;45859;51.378;6.736;2024-02-23T05:26:57;1.13;;;0.20;;
59998;SDS011;45859;51.378;6.736;2024-02-23T05:29:23;0.13;;;0.13;;
59998;SDS011;45859;51.378;6.736;2024-02-23T05:31:51;0.30;;;0.00;;
59998;SDS011;45859;51.378;6.736;2024-02-23T05:34:17;2.67;;;0.37;;
59998;SDS011;45859;51.378;6.736;2024-02-23T05:36:44;5.77;;;0.70;;
59998;SDS011;45859;51.378;6.736;2024-02-23T05:39:11;1.90;;;0.47;;
59998;SDS011;45859;51.378;6.736;2024-02-23T05:41:38;0.73;;;0.10;;
59998;SDS011;45859;51.378;6.736;2024-02-23T05:44:04;2.03;;;0.57;;
59998;SDS011;45859;51.378;6.736;2024-02-23T05:46:34;0.43;;;0.20;;
59998;SDS011;45859;51.378;6.736;2024-02-23T05:49:00;3.92;;;0.20;;
59998;SDS011;45859;51.378;6.736;2024-02-23T05:51:27;1.50;;;0.30;;
59998;SDS011;45859;51.378;6.736;2024-02-23T05:53:54;0.20;;;0.10;;
59998;SDS011;45859;51.378;6.736;2024-02-23T05:56:20;0.13;;;0.10;;
59998;SDS011;45859;51.378;6.736;2024-02-23T05:58:47;1.63;;;0.10;;
59998;SDS011;45859;51.378;6.736;2024-02-23T06:01:12;4.13;;;0.67;;
59998;SDS011;45859;51.378;6.736;2024-02-23T06:03:38;1.37;;;0.10;;
59998;SDS011;45859;51.378;6.736;2024-02-23T06:06:07;0.47;;;0.13;;
59998;SDS011;45859;51.378;6.736;2024-02-23T06:08:33;2.37;;;0.30;;
59998;SDS011;45859;51.378;6.736;2024-02-23T06:11:00;1.70;;;0.40;;
59998;SDS011;45859;51.378;6.736;2024-02-23T06:13:25;0.43;;;0.20;;
59998;SDS011;45859;51.378;6.736;2024-02-23T06:15:51;0.10;;;0.00;;
59998;SDS011;45859;51.378;6.736;2024-02-23T06:18:18;2.00;;;0.10;;
59998;SDS011;45859;51.378;6.736;2024-02-23T06:20:44;0.73;;;0.10;;
59998;SDS011;45859;51.378;6.736;2024-02-23T06:23:10;0.97;;;0.10;;
59998;SDS011;45859;51.378;6.736;2024-02-23T06:25:39;3.90;;;0.20;;
59998;SDS011;45859;51.378;6.736;2024-02-23T06:28:05;0.37;;;0.20;;
59998;SDS011;45859;51.378;6.736;2024-02-23T06:30:40;3.20;;;0.27;;
59998;SDS011;45859;51.378;6.736;2024-02-23T06:33:15;2.77;;;0.27;;
59998;SDS011;45859;51.378;6.736;2024-02-23T06:35:48;2.70;;;0.13;;
59998;SDS011;45859;51.378;6.736;2024-02-23T06:38:14;1.17;;;0.30;;
59998;SDS011;45859;51.378;6.736;2024-02-23T06:46:47;3.50;;;0.47;;
59998;SDS011;45859;51.378;6.736;2024-02-23T06:49:28;1.23;;;0.30;;
59998;SDS011;45859;51.378;6.736;2024-02-23T06:51:57;1.10;;;0.20;;
59998;SDS011;45859;51.378;6.736;2024-02-23T06:54:39;0.00;;;0.00;;
59998;SDS011;45859;51.378;6.736;2024-02-23T06:57:20;0.10;;;0.03;;
59998;SDS011;45859;51.378;6.736;2024-02-23T06:59:47;1.27;;;0.20;;
59998;SDS011;45859;51.378;6.736;2024-02-23T07:02:23;0.20;;;0.10;;
59998;SDS011;45859;51.378;6.736;2024-02-23T07:05:05;1.20;;;0.27;;
59998;SDS011;45859;51.378;6.736;2024-02-23T07:07:32;1.20;;;0.07;;
59998;SDS011;45859;51.378;6.736;2024-02-23T07:10:02;0.30;;;0.20;;
59998;SDS011;45859;51.378;6.736;2024-02-23T07:12:27;8.90;;;0.30;;
59998;SDS011;45859;51.378;6.736;2024-02-23T07:14:59;0.90;;;0.30;;
59998;SDS011;45859;51.378;6.736;2024-02-23T07:17:28;1.23;;;0.23;;
59998;SDS011;45859;51.378;6.736;2024-02-23T07:19:54;1.03;;;0.20;;
59998;SDS011;45859;51.378;6.736;2024-02-23T07:22:31;0.67;;;0.13;;
59998;SDS011;45859;51.378;6.736;2024-02-23T07:24:57;0.20;;;0.20;;
59998;SDS011;45859;51.378;6.736;2024-02-23T07:30:32;0.97;;;0.30;;
59998;SDS011;45859;51.378;6.736;2024-02-23T07:33:00;0.70;;;0.23;;
59998;SDS011;45859;51.378;6.736;2024-02-23T07:35:26;1.13;;;0.17;;
59998;SDS011;45859;51.378;6.736;2024-02-23T07:37:55;7.20;;;0.40;;
59998;SDS011;45859;51.378;6.736;2024-02-23T07:40:27;2.07;;;0.30;;
59998;SDS011;45859;51.378;6.736;2024-02-23T07:43:12;2.93;;;0.37;;
59998;SDS011;45859;51.378;6.736;2024-02-23T07:45:53;0.73;;;0.43;;
59998;SDS011;45859;51.378;6.736;2024-02-23T07:48:20;1.30;;;0.20;;
59998;SDS011;45859;51.378;6.736;2024-02-23T07:50:49;0.63;;;0.40;;
59998;SDS011;45859;51.378;6.736;2024-02-23T07:53:15;2.13;;;0.47;;
59998;SDS011;45859;51.378;6.736;2024-02-23T07:56:02;0.40;;;0.20;;
59998;SDS011;45859;51.378;6.736;2024-02-23T07:58:35;1.70;;;0.27;;
59998;SDS011;45859;51.378;6.736;2024-02-23T08:01:10;0.40;;;0.20;;
59998;SDS011;45859;51.378;6.736;2024-02-23T08:03:49;0.20;;;0.10;;
59998;SDS011;45859;51.378;6.736;2024-02-23T08:06:42;3.80;;;0.60;;
59998;SDS011;45859;51.378;6.736;2024-02-23T08:09:20;0.00;;;0.00;;
59998;SDS011;45859;51.378;6.736;2024-02-23T08:12:00;0.37;;;0.10;;
59998;SDS011;45859;51.378;6.736;2024-02-23T08:14:45;0.53;;;0.47;;
59998;SDS011;45859;51.378;6.736;2024-02-23T08:17:29;0.20;;;0.10;;
59998;SDS011;45859;51.378;6.736;2024-02-23T08:19:56;5.10;;;0.30;;
59998;SDS011;45859;51.378;6.736;2024-02-23T08:22:24;1.40;;;0.37;;
59998;SDS011;45859;51.378;6.736;2024-02-23T08:25:00;1.67;;;0.30;;
59998;SDS011;45859;51.378;6.736;2024-02-23T08:27:35;1.10;;;0.60;;
59998;SDS011;45859;51.378;6.736;2024-02-23T08:30:08;0.13;;;0.00;;
59998;SDS011;45859;51.378;6.736;2024-02-23T08:33:03;0.87;;;0.30;;
59998;SDS011;45859;51.378;6.736;2024-02-23T08:35:56;4.80;;;0.60;;
59998;SDS011;45859;51.378;6.736;2024-02-23T08:38:22;2.17;;;0.60;;
59998;SDS011;45859;51.378;6.736;2024-02-23T08:40:48;2.17;;;0.60;;
59998;SDS011;45859;51.378;6.736;2024-02-23T08:43:20;4.40;;;0.77;;
59998;SDS011;45859;51.378;6.736;2024-02-23T08:45:46;5.37;;;0.80;;
59998;SDS011;45859;51.378;6.736;2024-02-23T08:48:13;6.63;;;0.97;;
59998;SDS011;45859;51.378;6.736;2024-02-23T08:50:40;0.23;;;0.23;;
59998;SDS011;45859;51.378;6.736;2024-02-23T08:53:24;0.73;;;0.30;;
59998;SDS011;45859;51.378;6.736;2024-02-23T08:55:53;1.77;;;0.50;;
59998;SDS011;45859;51.378;6.736;2024-02-23T08:58:25;0.73;;;0.33;;
59998;SDS011;45859;51.378;6.736;2024-02-23T09:01:09;1.47;;;0.30;;
59998;SDS011;45859;51.378;6.736;2024-02-23T09:03:40;0.60;;;0.20;;
59998;SDS011;45859;51.378;6.736;2024-02-23T09:06:13;0.10;;;0.10;;
59998;SDS011;45859;51.378;6.736;2024-02-23T09:08:46;2.07;;;0.60;;
59998;SDS011;45859;51.378;6.736;2024-02-23T09:14:02;5.03;;;0.97;;
59998;SDS011;45859;51.378;6.736;2024-02-23T09:16:38;3.47;;;0.67;;
59998;SDS011;45859;51.378;6.736;2024-02-23T09:21:55;2.90;;;0.20;;
59998;SDS011;45859;51.378;6.736;2024-02-23T09:24:25;5.60;;;0.40;;
59998;SDS011;45859;51.378;6.736;2024-02-23T09:29:53;0.30;;;0.13;;
59998;SDS011;45859;51.378;6.736;2024-02-23T09:32:19;0.63;;;0.20;;
59998;SDS011;45859;51.378;6.736;2024-02-23T09:34:51;1.40;;;0.17;;
59998;SDS011;45859;51.378;6.736;2024-02-23T09:37:27;1.63;;;0.30;;
59998;SDS011;45859;51.378;6.736;2024-02-23T09:39:58;0.93;;;0.10;;
59998;SDS011;45859;51.378;6.736;2024-02-23T09:42:24;2.30;;;0.40;;
59998;SDS011;45859;51.378;6.736;2024-02-23T09:44:53;0.50;;;0.10;;
59998;SDS011;45859;51.378;6.736;2024-02-23T09:47:21;1.67;;;0.38;;
59998;SDS011;45859;51.378;6.736;2024-02-23T09:49:47;0.67;;;0.10;;
59998;SDS011;45859;51.378;6.736;2024-02-23T09:52:15;0.00;;;0.00;;
59998;SDS011;45859;51.378;6.736;2024-02-23T09:54:41;2.30;;;0.30;;
59998;SDS011;45859;51.378;6.736;2024-02-23T09:57:14;1.17;;;0.20;;
59998;SDS011;45859;51.378;6.736;2024-02-23T09:59:44;1.03;;;0.67;;
59998;SDS011;45859;51.378;6.736;2024-02-23T10:02:14;0.50;;;0.23;;
59998;SDS011;45859;51.378;6.736;2024-02-23T10:04:47;0.80;;;0.22;;
59998;SDS011;45859;51.378;6.736;2024-02-23T10:10:32;0.33;;;0.10;;
59998;SDS011;45859;51.378;6.736;2024-02-23T10:15:29;0.00;;;0.00;;
59998;SDS011;45859;51.378;6.736;2024-02-23T10:20:48;0.50;;;0.10;;
59998;SDS011;45859;51.378;6.736;2024-02-23T10:29:37;0.77;;;0.30;;
59998;SDS011;45859;51.378;6.736;2024-02-23T10:32:03;0.63;;;0.20;;
59998;SDS011;45859;51.378;6.736;2024-02-23T10:37:16;6.33;;;0.20;;
59998;SDS011;45859;51.378;6.736;2024-02-23T10:42:55;1.70;;;0.13;;
59998;SDS011;45859;51.378;6.736;2024-02-23T10:45:31;1.10;;;0.50;;
59998;SDS011;45859;51.378;6.736;2024-02-23T10:47:57;0.67;;;0.30;;
59998;SDS011;45859;51.378;6.736;2024-02-23T10:50:46;2.03;;;0.30;;
59998;SDS011;45859;51.378;6.736;2024-02-23T10:53:36;1.95;;;0.43;;
59998;SDS011;45859;51.378;6.736;2024-02-23T10:56:03;2.40;;;0.65;;
59998;SDS011;45859;51.378;6.736;2024-02-23T11:01:36;0.50;;;0.20;;
59998;SDS011;45859;51.378;6.736;2024-02-23T11:04:04;0.67;;;0.20;;
59998;SDS011;45859;51.378;6.736;2024-02-23T11:12:28;1.70;;;0.13;;
59998;SDS011;45859;51.378;6.736;2024-02-23T11:15:34;0.20;;;0.10;;
59998;SDS011;45859;51.378;6.736;2024-02-23T11:23:51;0.25;;;0.10;;
59998;SDS011;45859;51.378;6.736;2024-02-23T11:26:31;1.23;;;0.23;;
59998;SDS011;45859;51.378;6.736;2024-02-23T11:29:09;3.93;;;0.30;;
59998;SDS011;45859;51.378;6.736;2024-02-23T11:31:50;0.10;;;0.10;;
59998;SDS011;45859;51.378;6.736;2024-02-23T11:34:36;2.27;;;0.30;;
59998;SDS011;45859;51.378;6.736;2024-02-23T11:37:11;0.10;;;0.00;;
59998;SDS011;45859;51.378;6.736;2024-02-23T11:39:38;3.03;;;0.70;;
59998;SDS011;45859;51.378;6.736;2024-02-23T11:42:19;3.27;;;0.40;;
59998;SDS011;45859;51.378;6.736;2024-02-23T11:44:52;8.00;;;1.50;;
59998;SDS011;45859;51.378;6.736;2024-02-23T11:47:23;3.33;;;0.77;;
59998;SDS011;45859;51.378;6.736;2024-02-23T11:49:58;1.33;;;0.40;;
59998;SDS011;45859;51.378;6.736;2024-02-23T11:52:33;2.03;;;0.90;;
59998;SDS011;45859;51.378;6.736;2024-02-23T11:55:08;2.57;;;0.40;;
59998;SDS011;45859;51.378;6.736;2024-02-23T11:57:48;7.63;;;0.77;;
59998;SDS011;45859;51.378;6.736;2024-02-23T12:00:18;4.95;;;0.55;;
59998;SDS011;45859;51.378;6.736;2024-02-23T12:02:47;0.43;;;0.20;;
59998;SDS011;45859;51.378;6.736;2024-02-23T12:05:15;1.33;;;1.08;;
59998;SDS011;45859;51.378;6.736;2024-02-23T12:07:41;4.87;;;0.30;;
59998;SDS011;45859;51.378;6.736;2024-02-23T12:10:10;0.33;;;0.10;;
59998;SDS011;45859;51.378;6.736;2024-02-23T12:15:56;4.00;;;0.40;;
59998;SDS011;45859;51.378;6.736;2024-02-23T12:18:28;1.57;;;0.40;;
59998;SDS011;45859;51.378;6.736;2024-02-23T12:21:06;16.17;;;0.47;;
59998;SDS011;45859;51.378;6.736;2024-02-23T12:23:51;0.30;;;0.20;;
59998;SDS011;45859;51.378;6.736;2024-02-23T12:26:21;0.17;;;0.10;;
59998;SDS011;45859;51.378;6.736;2024-02-23T12:29:02;5.23;;;0.40;;
59998;SDS011;45859;51.378;6.736;2024-02-23T12:31:28;4.57;;;0.93;;
59998;SDS011;45859;51.378;6.736;2024-02-23T12:36:59;3.53;;;0.37;;
59998;SDS011;45859;51.378;6.736;2024-02-23T12:39:25;1.00;;;0.10;;
59998;SDS011;45859;51.378;6.736;2024-02-23T12:41:51;2.30;;;0.20;;
59998;SDS011;45859;51.378;6.736;2024-02-23T12:44:17;0.73;;;0.20;;
59998;SDS011;45859;51.378;6.736;2024-02-23T12:46:43;4.33;;;1.20;;
59998;SDS011;45859;51.378;6.736;2024-02-23T12:49:09;3.50;;;0.20;;
59998;SDS011;45859;51.378;6.736;2024-02-23T12:51:35;1.87;;;0.30;;
59998;SDS011;45859;51.378;6.736;2024-02-23T12:54:01;3.63;;;0.57;;
59998;SDS011;45859;51.378;6.736;2024-02-23T12:56:29;1.07;;;0.20;;
59998;SDS011;45859;51.378;6.736;2024-02-23T12:58:55;3.20;;;0.23;;
59998;SDS011;45859;51.378;6.736;2024-02-23T13:01:22;0.17;;;0.10;;
59998;SDS011;45859;51.378;6.736;2024-02-23T13:03:48;2.90;;;0.30;;
59998;SDS011;45859;51.378;6.736;2024-02-23T13:06:14;0.23;;;0.20;;
59998;SDS011;45859;51.378;6.736;2024-02-23T13:08:40;0.13;;;0.10;;
59998;SDS011;45859;51.378;6.736;2024-02-23T13:11:07;2.03;;;0.50;;
59998;SDS011;45859;51.378;6.736;2024-02-23T13:13:33;2.30;;;0.27;;
59998;SDS011;45859;51.378;6.736;2024-02-23T13:15:59;1.77;;;0.77;;
59998;SDS011;45859;51.378;6.736;2024-02-23T13:18:25;4.37;;;0.90;;
59998;SDS011;45859;51.378;6.736;2024-02-23T13:20:51;4.13;;;1.10;;
59998;SDS011;45859;51.378;6.736;2024-02-23T13:23:17;3.87;;;1.10;;
59998;SDS011;45859;51.378;6.736;2024-02-23T13:25:44;3.27;;;0.90;;
59998;SDS011;45859;51.378;6.736;2024-02-23T13:28:10;7.77;;;1.03;;
59998;SDS011;45859;51.378;6.736;2024-02-23T13:30:36;1.80;;;0.20;;
59998;SDS011;45859;51.378;6.736;2024-02-23T13:33:02;3.30;;;0.67;;
59998;SDS011;45859;51.378;6.736;2024-02-23T13:35:28;1.10;;;0.60;;
59998;SDS011;45859;51.378;6.736;2024-02-23T13:37:54;1.73;;;0.57;;
59998;SDS011;45859;51.378;6.736;2024-02-23T13:40:22;1.70;;;0.40;;
59998;SDS011;45859;51.378;6.736;2024-02-23T13:42:48;0.10;;;0.10;;
59998;SDS011;45859;51.378;6.736;2024-02-23T13:45:20;1.53;;;0.10;;
59998;SDS011;45859;51.378;6.736;2024-02-23T13:50:23;3.43;;;0.77;;
59998;SDS011;45859;51.378;6.736;2024-02-23T13:52:49;5.17;;;1.10;;
59998;SDS011;45859;51.378;6.736;2024-02-23T13:55:15;4.27;;;0.80;;
59998;SDS011;45859;51.378;6.736;2024-02-23T13:57:41;6.63;;;0.90;;
59998;SDS011;45859;51.378;6.736;2024-02-23T14:00:07;2.70;;;0.60;;
59998;SDS011;45859;51.378;6.736;2024-02-23T14:05:05;4.20;;;1.10;;
59998;SDS011;45859;51.378;6.736;2024-02-23T14:07:32;2.40;;;0.70;;
59998;SDS011;45859;51.378;6.736;2024-02-23T14:09:58;2.90;;;0.77;;
59998;SDS011;45859;51.378;6.736;2024-02-23T14:12:24;3.73;;;1.17;;
59998;SDS011;45859;51.378;6.736;2024-02-23T14:14:51;3.17;;;0.80;;
59998;SDS011;45859;51.378;6.736;2024-02-23T14:17:17;3.40;;;0.70;;
59998;SDS011;45859;51.378;6.736;2024-02-23T14:19:43;4.30;;;0.90;;
59998;SDS011;45859;51.378;6.736;2024-02-23T14:22:09;3.67;;;0.80;;
59998;SDS011;45859;51.378;6.736;2024-02-23T14:24:35;1.13;;;0.67;;
59998;SDS011;45859;51.378;6.736;2024-02-23T14:27:01;7.30;;;0.60;;
59998;SDS011;45859;51.378;6.736;2024-02-23T14:29:27;3.77;;;1.37;;
59998;SDS011;45859;51.378;6.736;2024-02-23T14:31:53;3.00;;;0.67;;
59998;SDS011;45859;51.378;6.736;2024-02-23T14:34:19;4.77;;;0.97;;
59998;SDS011;45859;51.378;6.736;2024-02-23T14:36:48;3.43;;;1.00;;
59998;SDS011;45859;51.378;6.736;2024-02-23T14:39:14;4.60;;;0.73;;
59998;SDS011;45859;51.378;6.736;2024-02-23T14:41:40;3.87;;;0.90;;
59998;SDS011;45859;51.378;6.736;2024-02-23T14:44:07;4.03;;;0.50;;
59998;SDS011;45859;51.378;6.736;2024-02-23T14:46:33;1.43;;;0.70;;
59998;SDS011;45859;51.378;6.736;2024-02-23T14:48:59;1.80;;;0.40;;
59998;SDS011;45859;51.378;6.736;2024-02-23T14:51:25;2.33;;;0.40;;
59998;SDS011;45859;51.378;6.736;2024-02-23T14:53:51;2.50;;;0.50;;
59998;SDS011;45859;51.378;6.736;2024-02-23T14:56:17;2.77;;;0.40;;
59998;SDS011;45859;51.378;6.736;2024-02-23T14:58:43;2.23;;;0.67;;
59998;SDS011;45859;51.378;6.736;2024-02-23T15:01:09;3.83;;;0.73;;
59998;SDS011;45859;51.378;6.736;2024-02-23T15:03:35;1.07;;;0.20;;
59998;SDS011;45859;51.378;6.736;2024-02-23T15:06:01;0.90;;;0.20;;
59998;SDS011;45859;51.378;6.736;2024-02-23T15:08:28;2.33;;;0.60;;
59998;SDS011;45859;51.378;6.736;2024-02-23T15:10:54;1.50;;;0.57;;
59998;SDS011;45859;51.378;6.736;2024-02-23T15:13:20;2.03;;;0.50;;
59998;SDS011;45859;51.378;6.736;2024-02-23T15:15:48;3.20;;;0.73;;
59998;SDS011;45859;51.378;6.736;2024-02-23T15:18:15;2.50;;;0.77;;
59998;SDS011;45859;51.378;6.736;2024-02-23T15:20:41;0.53;;;0.20;;
59998;SDS011;45859;51.378;6.736;2024-02-23T15:23:07;0.73;;;0.00;;
59998;SDS011;45859;51.378;6.736;2024-02-23T15:25:33;1.20;;;0.20;;
59998;SDS011;45859;51.378;6.736;2024-02-23T15:27:59;0.10;;;0.00;;
59998;SDS011;45859;51.378;6.736;2024-02-23T15:30:25;0.00;;;0.00;;
59998;SDS011;45859;51.378;6.736;2024-02-23T15:32:51;0.00;;;0.00;;
59998;SDS011;45859;51.378;6.736;2024-02-23T15:35:18;0.20;;;0.10;;
59998;SDS011;45859;51.378;6.736;2024-02-23T15:37:44;0.67;;;0.30;;
59998;SDS011;45859;51.378;6.736;2024-02-23T15:40:10;1.40;;;0.30;;
59998;SDS011;45859;51.378;6.736;2024-02-23T15:42:36;0.50;;;0.30;;
59998;SDS011;45859;51.378;6.736;2024-02-23T15:45:03;1.40;;;0.50;;
59998;SDS011;45859;51.378;6.736;2024-02-23T15:47:31;1.37;;;0.20;;
59998;SDS011;45859;51.378;6.736;2024-02-23T15:49:59;1.20;;;0.27;;
59998;SDS011;45859;51.378;6.736;2024-02-23T15:52:25;1.87;;;0.73;;
59998;SDS011;45859;51.378;6.736;2024-02-23T15:54:52;1.90;;;0.10;;
59998;SDS011;45859;51.378;6.736;2024-02-23T15:57:18;0.40;;;0.30;;
59998;SDS011;45859;51.378;6.736;2024-02-23T15:59:47;3.00;;;0.43;;